createdAt,value
2023-06-18T00:00:58.972Z,99174.91
2023-06-18T00:03:30.979Z,99173.16
2023-06-18T00:06:02.781Z,99172.70
2023-06-18T00:08:34.589Z,99170.50
2023-06-18T00:11:14.147Z,99171.38
2023-06-18T00:13:49.583Z,99167.81
2023-06-18T00:16:21.372Z,99168.72
2023-06-18T00:18:53.065Z,99164.74
2023-06-18T00:21:24.643Z,99166.95
2023-06-18T00:23:56.686Z,99165.20
2023-06-18T00:26:29.912Z,99168.73
2023-06-18T00:29:02.296Z,99164.75
2023-06-18T00:31:34.226Z,99173.58
2023-06-18T00:34:09.055Z,99173.16
2023-06-18T00:36:43.126Z,99174.91
2023-06-18T00:39:15.178Z,99164.75
2023-06-18T00:41:47.697Z,99166.08
2023-06-18T00:44:21.090Z,99170.06
2023-06-18T00:46:55.165Z,99170.52
2023-06-18T00:49:26.782Z,99173.16
2023-06-18T00:51:59.147Z,99173.16
2023-06-18T00:54:32.144Z,99174.49
2023-06-18T00:57:06.093Z,99180.22
2023-06-18T01:02:35.260Z,99170.02
2023-06-18T01:05:10.219Z,99164.72
2023-06-18T01:07:48.113Z,99161.20
2023-06-18T01:10:19.232Z,99161.66
2023-06-18T01:12:51.558Z,99156.38
2023-06-18T01:15:23.462Z,99161.23
2023-06-18T01:17:56.923Z,99160.33
2023-06-18T01:20:30.279Z,99165.63
2023-06-18T01:23:03.810Z,99159.91
2023-06-18T01:25:37.173Z,99163.88
2023-06-18T01:28:10.106Z,99167.86
2023-06-18T01:30:42.213Z,99162.10
2023-06-18T01:33:14.376Z,99162.07
2023-06-18T01:35:46.797Z,99169.61
2023-06-18T01:38:28.168Z,99173.59
2023-06-18T01:41:14.723Z,99181.54
2023-06-18T01:43:51.622Z,99185.06
2023-06-18T01:46:26.323Z,99181.53
2023-06-18T01:49:01.008Z,99187.70
2023-06-18T01:51:33.696Z,99186.83
2023-06-18T01:54:07.818Z,99184.18
2023-06-18T01:56:39.795Z,99192.13
2023-06-18T01:59:13.166Z,99188.61
2023-06-18T02:01:44.823Z,99197.89
2023-06-18T02:04:16.617Z,99193.45
2023-06-18T02:06:56.777Z,99198.30
2023-06-18T02:09:29.019Z,99193.91
2023-06-18T02:12:01.526Z,99201.41
2023-06-18T02:14:35.358Z,99201.41
2023-06-18T02:17:08.046Z,99207.58
2023-06-18T02:19:39.997Z,99214.66
2023-06-18T02:22:11.587Z,99208.03
2023-06-18T02:24:44.214Z,99202.73
2023-06-18T02:27:17.095Z,99208.48
2023-06-18T02:29:49.270Z,99210.23
2023-06-18T02:32:21.804Z,99216.00
2023-06-18T02:34:54.012Z,99213.36
2023-06-18T02:37:25.706Z,99208.94
2023-06-18T02:39:57.695Z,99212.49
2023-06-18T02:42:32.072Z,99215.61
2023-06-18T02:45:04.213Z,99216.94
2023-06-18T02:47:36.018Z,99217.81
2023-06-18T02:50:10.257Z,99217.36
2023-06-18T02:52:43.872Z,99217.81
2023-06-18T02:55:16.181Z,99228.42
2023-06-18T02:57:48.233Z,99222.66
2023-06-18T03:00:21.863Z,99229.75
2023-06-18T03:02:53.970Z,99231.95
2023-06-18T03:05:27.417Z,99226.19
2023-06-18T03:08:00.228Z,99219.13
2023-06-18T03:10:36.524Z,99218.67
2023-06-18T03:13:16.771Z,99215.14
2023-06-18T03:15:50.318Z,99223.53
2023-06-18T03:18:25.025Z,99214.23
2023-06-18T03:20:57.801Z,99220.41
2023-06-18T03:23:29.520Z,99226.63
2023-06-18T03:26:01.991Z,99225.72
2023-06-18T03:28:34.548Z,99220.41
2023-06-18T03:31:07.725Z,99231.47
2023-06-18T03:33:39.531Z,99234.58
2023-06-18T03:36:14.017Z,99241.64
2023-06-18T03:38:49.869Z,99241.22
2023-06-18T03:41:23.268Z,99249.58
2023-06-18T03:43:54.971Z,99252.22
2023-06-18T03:46:27.891Z,99251.31
2023-06-18T03:48:59.725Z,99249.07
2023-06-18T03:51:31.852Z,99243.73
2023-06-18T03:54:05.633Z,99249.89
2023-06-18T03:56:38.453Z,99245.44
2023-06-18T03:59:12.117Z,99256.91
2023-06-18T04:01:45.763Z,99254.64
2023-06-18T04:04:19.214Z,99253.23
2023-06-18T04:06:51.723Z,99252.72
2023-06-18T04:09:23.692Z,99249.94
2023-06-18T04:11:56.077Z,99249.45
2023-06-18T04:14:28.517Z,99252.95
2023-06-18T04:17:00.152Z,99245.80
2023-06-18T04:19:34.015Z,99251.95
2023-06-18T04:22:07.445Z,99247.52
2023-06-18T04:24:40.724Z,99250.15
2023-06-18T04:27:13.278Z,99252.34
2023-06-18T04:29:46.110Z,99252.80
2023-06-18T04:32:18.113Z,99254.52
2023-06-18T04:34:49.927Z,99255.38
2023-06-18T04:37:29.753Z,99259.36
2023-06-18T04:40:00.722Z,99259.33
2023-06-18T04:42:34.024Z,99270.40
2023-06-18T04:45:09.616Z,99269.05
2023-06-18T04:47:42.041Z,99266.83
2023-06-18T04:50:13.772Z,99266.39
2023-06-18T04:52:49.225Z,99274.34
2023-06-18T04:55:22.786Z,99273.02
2023-06-18T04:57:55.318Z,99275.66
2023-06-18T05:00:28.918Z,99283.64
2023-06-18T05:03:05.804Z,99286.74
2023-06-18T05:05:38.154Z,99288.98
2023-06-18T05:08:10.922Z,99292.95
2023-06-18T05:10:43.543Z,99291.13
2023-06-18T05:13:15.857Z,99295.55
2023-06-18T05:15:48.405Z,99294.63
2023-06-18T05:18:21.352Z,99299.48
2023-06-18T05:20:54.962Z,99302.97
2023-06-18T05:23:27.801Z,99306.50
2023-06-18T05:26:00.619Z,99299.81
2023-06-18T05:28:32.661Z,99310.89
2023-06-18T05:31:04.286Z,99309.55
2023-06-18T05:33:36.469Z,99305.94
2023-06-18T05:36:09.273Z,99300.58
2023-06-18T05:38:41.591Z,99303.17
2023-06-18T05:41:13.646Z,99304.89
2023-06-18T05:43:46.721Z,99303.94
2023-06-18T05:46:18.855Z,99300.75
2023-06-18T05:48:51.799Z,99301.58
2023-06-18T05:51:24.728Z,99304.62
2023-06-18T05:53:57.281Z,99310.75
2023-06-18T05:56:30.084Z,99308.52
2023-06-18T05:59:02.190Z,99310.68
2023-06-18T06:01:35.996Z,99307.56
2023-06-18T06:04:07.744Z,99314.61
2023-06-18T06:06:40.118Z,99311.03
2023-06-18T06:09:12.846Z,99315.45
2023-06-18T06:11:44.498Z,99315.38
2023-06-18T06:14:17.436Z,99313.10
2023-06-18T06:16:52.921Z,99307.16
2023-06-18T06:19:26.423Z,99313.19
2023-06-18T06:21:58.334Z,99320.14
2023-06-18T06:24:32.412Z,99317.42
2023-06-18T06:27:04.524Z,99320.83
2023-06-18T06:29:37.854Z,99325.63
2023-06-18T06:32:10.171Z,99325.63
2023-06-18T06:34:42.385Z,99326.61
2023-06-18T06:37:14.317Z,99324.81
2023-06-18T06:39:46.675Z,99323.91
2023-06-18T06:42:20.063Z,99323.42
2023-06-18T06:44:53.700Z,99328.72
2023-06-18T06:47:33.273Z,99335.78
2023-06-18T06:50:16.498Z,99335.73
2023-06-18T06:52:58.714Z,99333.97
2023-06-18T06:55:30.483Z,99335.30
2023-06-18T06:58:02.858Z,99337.47
2023-06-18T07:00:34.512Z,99341.30
2023-06-18T07:03:06.609Z,99338.56
2023-06-18T07:05:38.634Z,99338.94
2023-06-18T07:08:10.183Z,99331.78
2023-06-18T07:10:42.302Z,99339.70
2023-06-18T07:13:15.073Z,99336.45
2023-06-18T07:15:48.747Z,99335.00
2023-06-18T07:18:20.316Z,99341.98
2023-06-18T07:20:52.124Z,99337.83
2023-06-18T07:23:26.236Z,99346.59
2023-06-18T07:25:58.184Z,99351.36
2023-06-18T07:28:29.926Z,99352.58
2023-06-18T07:31:01.740Z,99353.89
2023-06-18T07:33:34.087Z,99362.76
2023-06-18T07:36:06.229Z,99361.36
2023-06-18T07:38:38.614Z,99359.97
2023-06-18T07:41:10.937Z,99372.30
2023-06-18T07:43:42.581Z,99365.48
2023-06-18T07:46:14.760Z,99372.06
2023-06-18T07:48:46.466Z,99367.98
2023-06-18T07:51:18.757Z,99369.61
2023-06-18T07:53:51.507Z,99373.84
2023-06-18T07:56:24.991Z,99379.47
2023-06-18T07:58:56.973Z,99375.80
2023-06-18T08:01:29.215Z,99380.62
2023-06-18T08:04:01.084Z,99382.36
2023-06-18T08:06:33.164Z,99384.50
2023-06-18T08:09:05.800Z,99384.03
2023-06-18T08:11:38.289Z,99383.63
2023-06-18T08:14:10.292Z,99390.27
2023-06-18T08:16:42.349Z,99388.39
2023-06-18T08:19:14.907Z,99393.17
2023-06-18T08:21:46.985Z,99398.41
2023-06-18T08:24:19.146Z,99389.36
2023-06-18T08:26:51.732Z,99392.77
2023-06-18T08:29:23.866Z,99394.41
2023-06-18T08:31:55.806Z,99391.63
2023-06-18T08:34:27.817Z,99391.09
2023-06-18T08:37:01.039Z,99387.87
2023-06-18T08:39:32.844Z,99392.65
2023-06-18T08:42:05.177Z,99396.95
2023-06-18T08:44:37.233Z,99395.04
2023-06-18T08:47:09.013Z,99395.88
2023-06-18T08:49:45.575Z,99387.88
2023-06-18T08:52:18.519Z,99395.04
2023-06-18T08:54:55.919Z,99396.27
2023-06-18T08:57:53.544Z,99395.22
2023-06-18T09:00:25.470Z,99384.70
2023-06-18T09:02:58.236Z,99389.13
2023-06-18T09:05:30.311Z,99391.33
2023-06-18T09:08:02.346Z,99393.14
2023-06-18T09:10:34.371Z,99393.50
2023-06-18T09:13:08.768Z,99392.00
2023-06-18T09:15:40.532Z,99384.67
2023-06-18T09:18:12.498Z,99387.16
2023-06-18T09:20:44.422Z,99395.00
2023-06-18T09:23:16.684Z,99383.72
2023-06-18T09:25:55.223Z,99387.74
2023-06-18T09:28:27.768Z,99392.28
2023-06-18T09:31:04.427Z,99388.64
2023-06-18T09:33:38.489Z,99391.33
2023-06-18T09:36:11.425Z,99391.69
2023-06-18T09:38:44.195Z,99392.82
2023-06-18T09:41:18.946Z,99394.04
2023-06-18T09:43:51.888Z,99393.56
2023-06-18T09:46:25.289Z,99395.22
2023-06-18T09:48:57.181Z,99391.54
2023-06-18T09:51:30.432Z,99386.95
2023-06-18T09:54:03.010Z,99384.70
2023-06-18T09:56:35.650Z,99394.00
2023-06-18T09:59:07.617Z,99379.16
2023-06-18T10:01:49.469Z,99382.15
2023-06-18T10:04:21.191Z,99383.79
2023-06-18T10:07:01.250Z,99391.23
2023-06-18T10:09:35.632Z,99375.56
2023-06-18T10:12:08.418Z,99379.16
2023-06-18T10:14:40.246Z,99383.27
2023-06-18T10:17:21.344Z,99388.59
2023-06-18T10:20:07.415Z,99381.80
2023-06-18T10:22:47.558Z,99379.89
2023-06-18T10:25:19.364Z,99384.17
2023-06-18T10:27:51.590Z,99381.75
2023-06-18T10:30:23.821Z,99385.73
2023-06-18T10:32:55.802Z,99383.90
2023-06-18T10:35:27.988Z,99389.53
2023-06-18T10:37:59.649Z,99391.12
2023-06-18T10:40:31.364Z,99386.05
2023-06-18T10:43:08.290Z,99387.30
2023-06-18T10:45:40.063Z,99389.88
2023-06-18T10:48:17.365Z,99380.38
2023-06-18T10:51:17.288Z,99387.58
2023-06-18T10:53:49.035Z,99396.25
2023-06-18T10:56:22.494Z,99386.41
2023-06-18T10:58:54.285Z,99379.53
2023-06-18T11:01:28.973Z,99385.34
2023-06-18T11:04:05.750Z,99383.00
2023-06-18T11:06:37.650Z,99381.39
2023-06-18T11:09:15.868Z,99385.95
2023-06-18T11:11:53.662Z,99389.06
2023-06-18T11:14:26.227Z,99390.66
2023-06-18T11:17:13.383Z,99384.98
2023-06-18T11:19:45.203Z,99381.53
2023-06-18T11:22:16.791Z,99386.63
2023-06-18T11:24:48.728Z,99379.28
2023-06-18T11:27:21.560Z,99379.91
2023-06-18T11:30:01.108Z,99390.46
2023-06-18T11:32:33.271Z,99380.43
2023-06-18T11:35:07.639Z,99387.97
2023-06-18T11:37:44.458Z,99390.12
2023-06-18T11:40:16.456Z,99388.73
2023-06-18T11:42:52.929Z,99397.61
2023-06-18T11:45:25.501Z,99394.77
2023-06-18T11:47:57.852Z,99391.83
2023-06-18T11:50:30.041Z,99392.48
2023-06-18T11:53:05.783Z,99394.97
2023-06-18T11:55:38.057Z,99395.73
2023-06-18T11:58:09.990Z,99398.27
2023-06-18T12:00:41.644Z,99399.09
2023-06-18T12:03:13.981Z,99396.98
2023-06-18T12:05:46.018Z,99401.11
2023-06-18T12:08:17.971Z,99400.59
2023-06-18T12:10:50.832Z,99400.48
2023-06-18T12:13:34.408Z,99404.94
2023-06-18T12:16:15.217Z,99401.33
2023-06-18T12:18:47.090Z,99393.55
2023-06-18T12:21:18.850Z,99396.09
2023-06-18T12:23:52.618Z,99394.16
2023-06-18T12:26:26.163Z,99390.50
2023-06-18T12:28:58.946Z,99391.84
2023-06-18T12:31:31.076Z,99392.31
2023-06-18T12:34:02.827Z,99389.91
2023-06-18T12:36:34.895Z,99389.80
2023-06-18T12:39:08.239Z,99387.01
2023-06-18T12:41:40.647Z,99383.77
2023-06-18T12:44:12.949Z,99386.41
2023-06-18T12:46:46.485Z,99388.67
2023-06-18T12:49:21.811Z,99381.63
2023-06-18T12:51:54.863Z,99387.38
2023-06-18T12:54:26.424Z,99391.41
2023-06-18T12:56:59.976Z,99380.23
2023-06-18T12:59:31.734Z,99381.23
2023-06-18T13:02:03.750Z,99383.87
2023-06-18T13:04:39.519Z,99400.73
2023-06-18T13:07:18.242Z,99387.70
2023-06-18T13:09:50.142Z,99390.25
2023-06-18T13:12:23.434Z,99386.10
2023-06-18T13:14:55.263Z,99391.85
2023-06-18T13:17:27.467Z,99390.40
2023-06-18T13:20:00.214Z,99395.12
2023-06-18T13:22:33.076Z,99397.64
2023-06-18T13:25:06.845Z,99389.88
2023-06-18T13:27:39.934Z,99395.05
2023-06-18T13:30:12.608Z,99390.80
2023-06-18T13:32:46.057Z,99395.77
2023-06-18T13:35:20.895Z,99387.27
2023-06-18T13:37:53.061Z,99398.04
2023-06-18T13:40:24.858Z,99397.33
2023-06-18T13:42:56.948Z,99404.32
2023-06-18T13:45:29.846Z,99394.27
2023-06-18T13:48:04.731Z,99390.44
2023-06-18T13:50:39.663Z,99391.91
2023-06-18T13:53:11.891Z,99391.67
2023-06-18T13:55:44.272Z,99387.95
2023-06-18T13:58:17.606Z,99384.30
2023-06-18T14:00:49.610Z,99384.30
2023-06-18T14:03:21.607Z,99386.23
2023-06-18T14:05:54.073Z,99385.02
2023-06-18T14:08:26.133Z,99385.99
2023-06-18T14:10:57.790Z,99383.72
2023-06-18T14:13:30.585Z,99382.73
2023-06-18T14:16:03.647Z,99384.72
2023-06-18T14:18:35.760Z,99386.77
2023-06-18T14:21:07.571Z,99381.69
2023-06-18T14:23:41.667Z,99383.80
2023-06-18T14:26:14.646Z,99385.95
2023-06-18T14:28:46.589Z,99380.56
2023-06-18T14:31:22.413Z,99383.43
2023-06-18T14:34:08.054Z,99387.63
2023-06-18T14:36:28.231Z,99389.67
2023-06-18T14:38:59.832Z,99392.14
2023-06-18T14:41:31.661Z,99391.19
2023-06-18T14:44:03.529Z,99392.09
2023-06-18T14:46:35.410Z,99397.86
2023-06-18T14:49:07.503Z,99400.22
2023-06-18T14:51:40.822Z,99393.20
2023-06-18T14:54:17.687Z,99399.11
2023-06-18T14:56:51.905Z,99401.80
2023-06-18T14:59:23.772Z,99403.05
2023-06-18T15:01:55.508Z,99400.65
2023-06-18T15:04:27.182Z,99407.51
2023-06-18T15:06:59.099Z,99412.63
2023-06-18T15:09:30.867Z,99411.08
2023-06-18T15:12:03.717Z,99419.02
2023-06-18T15:14:35.883Z,99416.61
2023-06-18T15:17:07.945Z,99417.19
2023-06-18T15:19:39.890Z,99427.97
2023-06-18T15:22:11.686Z,99429.31
2023-06-18T15:24:43.327Z,99424.79
2023-06-18T15:27:15.222Z,99427.88
2023-06-18T15:29:47.149Z,99434.98
2023-06-18T15:32:19.847Z,99440.25
2023-06-18T15:34:52.111Z,99435.05
2023-06-18T15:37:24.050Z,99441.18
2023-06-18T15:39:55.896Z,99437.78
2023-06-18T15:42:27.961Z,99435.64
2023-06-18T15:45:00.306Z,99438.65
2023-06-18T15:47:34.095Z,99435.73
2023-06-18T15:50:07.307Z,99446.33
2023-06-18T15:52:39.420Z,99450.94
2023-06-18T15:55:11.783Z,99455.73
2023-06-18T15:57:43.804Z,99454.38
2023-06-18T16:00:15.898Z,99454.38
2023-06-18T16:02:47.811Z,99451.78
2023-06-18T16:05:19.810Z,99465.70
2023-06-18T16:07:51.691Z,99462.38
2023-06-18T16:10:23.381Z,99464.62
2023-06-18T16:12:55.308Z,99466.03
2023-06-18T16:15:27.220Z,99464.34
2023-06-18T16:17:59.297Z,99471.83
2023-06-18T16:20:31.785Z,99469.52
2023-06-18T16:23:04.575Z,99476.56
2023-06-18T16:25:38.275Z,99475.27
2023-06-18T16:28:10.672Z,99479.38
2023-06-18T16:30:42.483Z,99478.41
2023-06-18T16:33:15.449Z,99485.16
2023-06-18T16:35:47.306Z,99489.92
2023-06-18T16:38:19.501Z,99492.52
2023-06-18T16:40:51.236Z,99494.23
2023-06-18T16:43:23.027Z,99487.25
2023-06-18T16:45:54.703Z,99496.53
2023-06-18T16:48:26.606Z,99496.61
2023-06-18T16:50:58.521Z,99498.05
2023-06-18T16:53:30.197Z,99508.67
2023-06-18T16:56:01.945Z,99505.09
2023-06-18T16:58:34.710Z,99505.59
2023-06-18T17:01:06.483Z,99506.84
2023-06-18T17:03:38.542Z,99512.97
2023-06-18T17:06:10.802Z,99511.38
2023-06-18T17:08:42.421Z,99515.33
2023-06-18T17:11:15.286Z,99515.72
2023-06-18T17:13:47.299Z,99519.17
2023-06-18T17:16:19.020Z,99526.32
2023-06-18T17:18:50.893Z,99524.50
2023-06-18T17:21:22.815Z,99526.98
2023-06-18T17:23:54.731Z,99528.63
2023-06-18T17:26:28.009Z,99531.17
2023-06-18T17:28:59.908Z,99535.97
2023-06-18T17:31:31.838Z,99539.39
2023-06-18T17:34:03.815Z,99539.69
2023-06-18T17:36:36.008Z,99542.19
2023-06-18T17:39:07.710Z,99547.32
2023-06-18T17:41:41.418Z,99552.48
2023-06-18T17:44:13.270Z,99553.98
2023-06-18T17:46:47.265Z,99558.17
2023-06-18T17:49:19.250Z,99561.48
2023-06-18T17:51:51.755Z,99569.20
2023-06-18T17:54:23.715Z,99567.11
2023-06-18T17:56:55.828Z,99578.86
2023-06-18T17:59:27.545Z,99578.06
2023-06-18T18:01:59.427Z,99590.66
2023-06-18T18:04:31.836Z,99591.64
2023-06-18T18:07:04.420Z,99589.09
2023-06-18T18:09:37.484Z,99594.50
2023-06-18T18:12:10.145Z,99598.60
2023-06-18T18:14:42.089Z,99600.05
2023-06-18T18:17:13.870Z,99606.39
2023-06-18T18:19:46.479Z,99610.88
2023-06-18T18:22:19.483Z,99615.38
2023-06-18T18:24:51.197Z,99612.75
2023-06-18T18:27:23.087Z,99615.91
2023-06-18T18:29:55.084Z,99622.63
2023-06-18T18:32:26.958Z,99625.31
2023-06-18T18:34:59.998Z,99631.09
2023-06-18T18:37:32.278Z,99627.56
2023-06-18T18:40:05.520Z,99633.82
2023-06-18T18:42:37.470Z,99629.39
2023-06-18T18:45:09.905Z,99628.05
2023-06-18T18:47:42.183Z,99636.06
2023-06-18T18:50:13.996Z,99632.55
2023-06-18T18:52:46.565Z,99642.36
2023-06-18T18:55:18.527Z,99641.92
2023-06-18T18:57:50.179Z,99650.39
2023-06-18T19:00:22.302Z,99651.27
2023-06-18T19:02:54.113Z,99649.05
2023-06-18T19:05:26.212Z,99657.94
2023-06-18T19:08:00.756Z,99652.61
2023-06-18T19:10:33.146Z,99649.49
2023-06-18T19:13:08.732Z,99650.42
2023-06-18T19:15:42.104Z,99649.14
2023-06-18T19:18:26.957Z,99647.86
2023-06-18T19:20:58.811Z,99643.90
2023-06-18T19:23:30.543Z,99652.39
2023-06-18T19:26:03.545Z,99652.89
2023-06-18T19:28:35.357Z,99652.01
2023-06-18T19:31:07.004Z,99655.16
2023-06-18T19:33:39.417Z,99653.88
2023-06-18T19:36:11.793Z,99662.34
2023-06-18T19:38:43.973Z,99664.14
2023-06-18T19:41:15.818Z,99662.81
2023-06-18T19:43:59.087Z,99666.34
2023-06-18T19:46:30.717Z,99668.14
2023-06-18T19:49:02.793Z,99663.70
2023-06-18T19:51:34.853Z,99669.05
2023-06-18T19:54:06.976Z,99672.19
2023-06-18T19:56:39.160Z,99671.73
2023-06-18T19:59:10.824Z,99670.00
2023-06-18T20:01:42.924Z,99676.66
2023-06-18T20:04:14.771Z,99673.10
2023-06-18T20:06:46.534Z,99677.12
2023-06-18T20:09:18.167Z,99681.14
2023-06-18T20:11:49.794Z,99676.28
2023-06-18T20:14:21.427Z,99682.53
2023-06-18T20:16:54.643Z,99690.55
2023-06-18T20:19:26.904Z,99690.98
2023-06-18T20:21:59.968Z,99693.25
2023-06-18T20:24:32.664Z,99691.92
2023-06-18T20:27:05.482Z,99694.59
2023-06-18T20:29:37.848Z,99689.74
2023-06-18T20:34:30.026Z,99691.97
2023-06-18T20:37:22.139Z,99696.40
2023-06-18T20:39:53.513Z,99700.85
2023-06-18T20:42:26.288Z,99694.21
2023-06-18T20:45:02.472Z,99702.63
2023-06-18T20:47:35.021Z,99695.55
2023-06-18T20:50:09.885Z,99704.88
2023-06-18T20:52:43.610Z,99708.88
2023-06-18T20:55:25.069Z,99711.98
2023-06-18T20:57:58.552Z,99712.87
2023-06-18T21:00:30.136Z,99715.98
2023-06-18T21:03:02.070Z,99719.52
2023-06-18T21:05:34.604Z,99719.53
2023-06-18T21:08:06.661Z,99723.52
2023-06-18T21:10:38.544Z,99729.66
2023-06-18T22:06:54.309Z,99729.65
2023-06-18T22:09:28.317Z,99743.23
2023-06-18T22:12:02.987Z,99743.63
2023-06-18T22:14:36.566Z,99745.86
2023-06-18T22:17:08.989Z,99745.40
2023-06-18T22:19:40.893Z,99743.19
2023-06-18T22:22:14.755Z,99745.38
2023-06-18T22:24:49.145Z,99742.72
2023-06-18T22:27:21.405Z,99754.20
2023-06-18T22:30:00.185Z,99753.32
2023-06-18T22:32:32.450Z,99755.53
2023-06-18T22:35:06.175Z,99756.44
2023-06-18T22:37:38.652Z,99748.44
2023-06-18T22:40:20.296Z,99754.57
2023-06-18T22:42:55.873Z,99751.00
2023-06-18T22:45:27.612Z,99748.75
2023-06-18T22:48:00.148Z,99752.64
2023-06-18T22:50:42.482Z,99747.28
2023-06-18T22:53:21.033Z,99750.34
2023-06-18T22:55:53.634Z,99750.72
2023-06-18T22:58:25.413Z,99749.40
2023-06-18T23:00:57.225Z,99754.69
2023-06-18T23:03:32.168Z,99753.76
2023-06-18T23:06:04.410Z,99755.53
2023-06-18T23:08:36.249Z,99757.73
2023-06-18T23:11:08.569Z,99757.73
2023-06-18T23:13:40.926Z,99764.83
2023-06-18T23:16:15.492Z,99764.83
2023-06-18T23:18:47.984Z,99766.16
2023-06-18T23:21:22.289Z,99766.98
2023-06-18T23:23:55.066Z,99759.88
2023-06-18T23:26:28.559Z,99760.72
2023-06-18T23:29:02.805Z,99765.59
2023-06-18T23:31:35.227Z,99766.95
2023-06-18T23:34:09.336Z,99758.10
2023-06-18T23:36:41.538Z,99755.88
2023-06-18T23:39:16.230Z,99754.56
2023-06-18T23:41:48.004Z,99755.44
2023-06-18T23:44:20.167Z,99756.31
2023-06-18T23:46:54.275Z,99751.91
2023-06-18T23:49:25.952Z,99754.56
2023-06-18T23:51:58.075Z,99754.09
2023-06-18T23:54:30.287Z,99756.74
2023-06-18T23:57:02.121Z,99752.73
2023-06-18T23:59:34.072Z,99756.66
